Koushinmaru No.5 — JL6695 — position and weather

sailwx.info

Track history (hours):
 
Tides and Currents Weather Stations Pressure Air Temp Water Temp Dewpoint Dewpoint Depression Visibility Wind Speed Wind Dir Waves Ship Positions

Koushinmaru No.5

Last reported at 2016-May-28 05:23 UTC. Time now 2016-Jun-01 07:26 UTC.
Position N 35°01' E 140°11'.

Length 75 m; draft 4.8 m.

Type: Cargo ship. MMSI: 431301703.

Date/timePositionNaut miles runAvg speedWind from/ knotsBaromVisibWave heightAir tempDewpointWater temp
2016-May-28 05:23N 35°01' E 140°11'29 9.0
2016-May-28 02:10N 35°21' E 140°36'710.5
2016-May-28 01:33N 35°27' E 140°41'1110.9
2016-May-28 00:33N 35°35' E 140°49'13 9.4
2016-May-27 23:08N 35°48' E 140°51'610.8
2016-May-27 22:33N 35°54' E 140°47'6 6.2
2016-May-27 21:33N 35°55' E 140°40'0 0.0
2016-May-27 11:33N 35°55' E 140°40'0 0.0
2016-May-27 04:33N 35°55' E 140°40'0 0.0
2016-May-27 03:33N 35°55' E 140°40'0 0.0
2016-May-27 02:33N 35°55' E 140°40'0 0.0
2016-May-27 01:33N 35°55' E 140°40'0 0.0
2016-May-27 00:33N 35°55' E 140°40'0 0.0
2016-May-26 23:33N 35°55' E 140°40'0 0.0
2016-May-26 22:33N 35°55' E 140°40'1 1.3
2016-May-26 21:33N 35°55' E 140°42'37 8.5
2016-May-26 17:11N 35°19' E 140°34'2413.4
2016-May-26 15:23N 35°02' E 140°12'23 8.1
2016-May-26 12:33N 35°05' E 139°44'1111.3
2016-May-26 11:33N 35°16' E 139°46'10 9.9
2016-May-26 10:33N 35°25' E 139°44'1111.2
2016-May-26 09:33N 35°33' E 139°54'8 8.2
2016-May-26 08:34N 35°41' E 139°57'0 0.0
2016-May-26 07:33N 35°41' E 139°57'0 0.0
2016-May-26 06:33N 35°41' E 139°57'2 1.6
2016-May-26 05:33N 35°39' E 139°58'2 1.9
2016-May-26 04:33N 35°37' E 139°58'3 3.0
2016-May-26 03:33N 35°35' E 139°57'1110.9
2016-May-26 02:34N 35°25' E 139°50'4 3.9
2016-May-26 01:34N 35°22' E 139°51'0 0.0
2016-May-26 00:34N 35°22' E 139°51'0 0.0
2016-May-25 23:33N 35°22' E 139°51'0 0.0
2016-May-25 22:33N 35°22' E 139°51'0 0.4
2016-May-25 21:33N 35°21' E 139°51'0 0.0
2016-May-24 17:22N 35°21' E 139°51'2 1.9
2016-May-24 16:33N 35°22' E 139°49'0 0.3
2016-May-24 15:33N 35°22' E 139°49'0 0.0
2016-May-24 14:33N 35°22' E 139°49'0 0.0
2016-May-24 13:33N 35°22' E 139°49'0 0.0
2016-May-24 12:33N 35°22' E 139°49'0 0.0
2016-May-24 11:34N 35°22' E 139°49'0 0.0
2016-May-24 10:33N 35°22' E 139°49'0 0.0
2016-May-24 09:33N 35°22' E 139°49'8 7.6
2016-May-24 08:33N 35°29' E 139°51'1111.0
2016-May-24 07:34N 35°38' E 139°58'3 2.6
2016-May-24 06:33N 35°41' E 139°57'0 0.0
2016-May-23 22:33N 35°41' E 139°57'4 3.6
2016-May-23 21:33N 35°37' E 139°58'0 0.1
2016-May-23 20:33N 35°37' E 139°58'0 0.0
2016-May-23 19:33N 35°37' E 139°58'0 0.0
2016-May-23 18:33N 35°37' E 139°58'0 0.0
2016-May-23 17:33N 35°37' E 139°58'0 0.0
2016-May-23 16:33N 35°37' E 139°58'0 0.0
2016-May-23 15:33N 35°37' E 139°58'0 0.0
2016-May-23 14:33N 35°37' E 139°58'0 0.0
2016-May-23 13:33N 35°37' E 139°58'0 0.0
2016-May-23 12:33N 35°37' E 139°58'0 0.0
2016-May-23 11:33N 35°37' E 139°58'0 0.0
2016-May-23 10:33N 35°37' E 139°58'7 6.8
2016-May-23 09:33N 35°33' E 139°52'1110.6
2016-May-23 08:33N 35°27' E 139°41'2 2.1
2016-May-23 07:34N 35°29' E 139°39'0 0.0
2016-May-23 06:33N 35°29' E 139°39'0 0.0
2016-May-23 05:33N 35°29' E 139°39'0 0.0
2016-May-23 04:33N 35°29' E 139°39'2 2.4
2016-May-23 03:33N 35°27' E 139°41'1 1.1
2016-May-23 02:34N 35°27' E 139°43'4 3.6
2016-May-23 01:33N 35°27' E 139°47'1110.9
2016-May-23 00:33N 35°35' E 139°56'2 1.8
2016-May-22 23:33N 35°37' E 139°58'0 0.0
2016-May-22 22:32N 35°37' E 139°58'4 4.6
2016-May-22 21:33N 35°33' E 139°55'1110.7
2016-May-22 20:33N 35°25' E 139°47'9 9.5
2016-May-22 19:33N 35°15' E 139°47'1110.8
2016-May-22 18:33N 35°04' E 139°44'1211.6
2016-May-22 17:33N 34°57' E 139°33'  
2016-May-20 02:31N 35°15' E 140°31'1111.0
2016-May-20 01:31N 35°25' E 140°39'1111.1
2016-May-20 00:31N 35°33' E 140°47'23 9.8
2016-May-19 22:08N 35°57' E 140°46'4 6.5
2016-May-19 21:33N 35°55' E 140°41'1 0.1
2016-May-19 09:04N 35°56' E 140°40'2 4.2
2016-May-19 08:33N 35°56' E 140°42'41 8.2
2016-May-19 03:33N 35°16' E 140°31'2110.8
2016-May-19 01:33N 35°02' E 140°12'23 7.5
2016-May-18 22:31N 35°02' E 139°44'1212.7
2016-May-18 21:33N 35°15' E 139°46'1110.8
2016-May-18 20:33N 35°25' E 139°45'6 6.5
2016-May-18 19:33N 35°22' E 139°51'0 0.0
2016-May-18 15:33N 35°22' E 139°51'0 0.4
2016-May-18 14:33N 35°22' E 139°51'1 1.2
2016-May-18 13:33N 35°22' E 139°49'0 0.0
2016-May-18 12:33N 35°22' E 139°49'0 0.0
2016-May-18 11:33N 35°22' E 139°49'0 0.0
2016-May-18 10:33N 35°22' E 139°49'0 0.0
2016-May-18 09:33N 35°22' E 139°49'0 0.0
2016-May-18 08:33N 35°22' E 139°49'0 0.2
2016-May-18 07:33N 35°22' E 139°49'6 6.3
2016-May-18 06:33N 35°16' E 139°46'1010.3
2016-May-18 05:33N 35°06' E 139°45'  
Track history (hours):
 
Tides and Currents Weather Stations Pressure Air Temp Water Temp Dewpoint Dewpoint Depression Visibility Wind Speed Wind Dir Waves Ship Positions

Koushinmaru No.5

Last reported at 2016-May-28 05:23 UTC. Time now 2016-Jun-01 07:26 UTC.
Position N 35°01' E 140°11'.

Length 75 m; draft 4.8 m.

Type: Cargo ship. MMSI: 431301703.

Date/timePositionNaut miles runAvg speedWind from/ knotsBaromVisibWave heightAir tempDewpointWater temp
2016-May-28 05:23N 35°01' E 140°11'29 9.0
2016-May-28 02:10N 35°21' E 140°36'710.5
2016-May-28 01:33N 35°27' E 140°41'1110.9
2016-May-28 00:33N 35°35' E 140°49'13 9.4
2016-May-27 23:08N 35°48' E 140°51'610.8
2016-May-27 22:33N 35°54' E 140°47'6 6.2
2016-May-27 21:33N 35°55' E 140°40'0 0.0
2016-May-27 11:33N 35°55' E 140°40'0 0.0
2016-May-27 04:33N 35°55' E 140°40'0 0.0
2016-May-27 03:33N 35°55' E 140°40'0 0.0
2016-May-27 02:33N 35°55' E 140°40'0 0.0
2016-May-27 01:33N 35°55' E 140°40'0 0.0
2016-May-27 00:33N 35°55' E 140°40'0 0.0
2016-May-26 23:33N 35°55' E 140°40'0 0.0
2016-May-26 22:33N 35°55' E 140°40'1 1.3
2016-May-26 21:33N 35°55' E 140°42'37 8.5
2016-May-26 17:11N 35°19' E 140°34'2413.4
2016-May-26 15:23N 35°02' E 140°12'23 8.1
2016-May-26 12:33N 35°05' E 139°44'1111.3
2016-May-26 11:33N 35°16' E 139°46'10 9.9
2016-May-26 10:33N 35°25' E 139°44'1111.2
2016-May-26 09:33N 35°33' E 139°54'8 8.2
2016-May-26 08:34N 35°41' E 139°57'0 0.0
2016-May-26 07:33N 35°41' E 139°57'0 0.0
2016-May-26 06:33N 35°41' E 139°57'2 1.6
2016-May-26 05:33N 35°39' E 139°58'2 1.9
2016-May-26 04:33N 35°37' E 139°58'3 3.0
2016-May-26 03:33N 35°35' E 139°57'1110.9
2016-May-26 02:34N 35°25' E 139°50'4 3.9
2016-May-26 01:34N 35°22' E 139°51'0 0.0
2016-May-26 00:34N 35°22' E 139°51'0 0.0
2016-May-25 23:33N 35°22' E 139°51'0 0.0
2016-May-25 22:33N 35°22' E 139°51'0 0.4
2016-May-25 21:33N 35°21' E 139°51'0 0.0
2016-May-24 17:22N 35°21' E 139°51'2 1.9
2016-May-24 16:33N 35°22' E 139°49'0 0.3
2016-May-24 15:33N 35°22' E 139°49'0 0.0
2016-May-24 14:33N 35°22' E 139°49'0 0.0
2016-May-24 13:33N 35°22' E 139°49'0 0.0
2016-May-24 12:33N 35°22' E 139°49'0 0.0
2016-May-24 11:34N 35°22' E 139°49'0 0.0
2016-May-24 10:33N 35°22' E 139°49'0 0.0
2016-May-24 09:33N 35°22' E 139°49'8 7.6
2016-May-24 08:33N 35°29' E 139°51'1111.0
2016-May-24 07:34N 35°38' E 139°58'3 2.6
2016-May-24 06:33N 35°41' E 139°57'0 0.0
2016-May-23 22:33N 35°41' E 139°57'4 3.6
2016-May-23 21:33N 35°37' E 139°58'0 0.1
2016-May-23 20:33N 35°37' E 139°58'0 0.0
2016-May-23 19:33N 35°37' E 139°58'0 0.0
2016-May-23 18:33N 35°37' E 139°58'0 0.0
2016-May-23 17:33N 35°37' E 139°58'0 0.0
2016-May-23 16:33N 35°37' E 139°58'0 0.0
2016-May-23 15:33N 35°37' E 139°58'0 0.0
2016-May-23 14:33N 35°37' E 139°58'0 0.0
2016-May-23 13:33N 35°37' E 139°58'0 0.0
2016-May-23 12:33N 35°37' E 139°58'0 0.0
2016-May-23 11:33N 35°37' E 139°58'0 0.0
2016-May-23 10:33N 35°37' E 139°58'7 6.8
2016-May-23 09:33N 35°33' E 139°52'1110.6
2016-May-23 08:33N 35°27' E 139°41'2 2.1
2016-May-23 07:34N 35°29' E 139°39'0 0.0
2016-May-23 06:33N 35°29' E 139°39'0 0.0
2016-May-23 05:33N 35°29' E 139°39'0 0.0
2016-May-23 04:33N 35°29' E 139°39'2 2.4
2016-May-23 03:33N 35°27' E 139°41'1 1.1
2016-May-23 02:34N 35°27' E 139°43'4 3.6
2016-May-23 01:33N 35°27' E 139°47'1110.9
2016-May-23 00:33N 35°35' E 139°56'2 1.8
2016-May-22 23:33N 35°37' E 139°58'0 0.0
2016-May-22 22:32N 35°37' E 139°58'4 4.6
2016-May-22 21:33N 35°33' E 139°55'1110.7
2016-May-22 20:33N 35°25' E 139°47'9 9.5
2016-May-22 19:33N 35°15' E 139°47'1110.8
2016-May-22 18:33N 35°04' E 139°44'1211.6
2016-May-22 17:33N 34°57' E 139°33'  
2016-May-20 02:31N 35°15' E 140°31'1111.0
2016-May-20 01:31N 35°25' E 140°39'1111.1
2016-May-20 00:31N 35°33' E 140°47'23 9.8
2016-May-19 22:08N 35°57' E 140°46'4 6.5
2016-May-19 21:33N 35°55' E 140°41'1 0.1
2016-May-19 09:04N 35°56' E 140°40'2 4.2
2016-May-19 08:33N 35°56' E 140°42'41 8.2
2016-May-19 03:33N 35°16' E 140°31'2110.8
2016-May-19 01:33N 35°02' E 140°12'23 7.5
2016-May-18 22:31N 35°02' E 139°44'1212.7
2016-May-18 21:33N 35°15' E 139°46'1110.8
2016-May-18 20:33N 35°25' E 139°45'6 6.5
2016-May-18 19:33N 35°22' E 139°51'0 0.0
2016-May-18 15:33N 35°22' E 139°51'0 0.4
2016-May-18 14:33N 35°22' E 139°51'1 1.2
2016-May-18 13:33N 35°22' E 139°49'0 0.0
2016-May-18 12:33N 35°22' E 139°49'0 0.0
2016-May-18 11:33N 35°22' E 139°49'0 0.0
2016-May-18 10:33N 35°22' E 139°49'0 0.0
2016-May-18 09:33N 35°22' E 139°49'0 0.0
2016-May-18 08:33N 35°22' E 139°49'0 0.2
2016-May-18 07:33N 35°22' E 139°49'6 6.3
2016-May-18 06:33N 35°16' E 139°46'1010.3
2016-May-18 05:33N 35°06' E 139°45'  

Dump ship's entire track history